Terminal Aerodrome Forecast
Issued by NWS

Home | Current Version | Previous Version | Graphics & Text | Print | Product List | Glossary On
Versions: 1 2 3 4 5 6 7 8 9 10 11 12 13 14 15 16 17 18 19
000
FTUS43 KBIS 190539
TAFMOT
TAF
KMOT 190539Z 1906/2006 32006KT P6SM BKN220
     FM191100 34007KT P6SM SCT250
     FM191400 01009KT P6SM FEW300
     FM191800 03011KT P6SM FEW300
     FM192300 05007KT P6SM SKC
     FM200200 VRB03KT P6SM SKC=

USA.gov is the U.S. government's official web portal to all federal, state and local government web resources and services.